sensor_id;sensor_type;location;lat;lon;timestamp;pressure;altitude;pressure_sealevel;temperature;humidity
46412;BME280;32113;42.012;24.870;2023-12-14T00:00:14;98257.81;;;7.93;69.71
46412;BME280;32113;42.012;24.870;2023-12-14T00:02:39;98270.47;;;8.00;69.08
46412;BME280;32113;42.012;24.870;2023-12-14T00:05:05;98275.69;;;7.94;69.26
46412;BME280;32113;42.012;24.870;2023-12-14T00:07:31;98278.19;;;7.99;68.99
46412;BME280;32113;42.012;24.870;2023-12-14T00:09:56;98279.09;;;7.93;69.47
46412;BME280;32113;42.012;24.870;2023-12-14T00:12:22;98276.53;;;7.95;69.24
46412;BME280;32113;42.012;24.870;2023-12-14T00:14:47;98285.09;;;7.91;68.74
46412;BME280;32113;42.012;24.870;2023-12-14T00:17:13;98290.19;;;7.91;68.88
46412;BME280;32113;42.012;24.870;2023-12-14T00:19:38;98274.13;;;7.81;69.08
46412;BME280;32113;42.012;24.870;2023-12-14T00:22:04;98262.19;;;7.84;69.30
46412;BME280;32113;42.012;24.870;2023-12-14T00:24:29;98277.56;;;7.80;69.46
46412;BME280;32113;42.012;24.870;2023-12-14T00:26:54;98273.34;;;7.74;69.80
46412;BME280;32113;42.012;24.870;2023-12-14T00:29:20;98291.19;;;7.80;69.31
46412;BME280;32113;42.012;24.870;2023-12-14T00:31:45;98282.66;;;7.78;69.93
46412;BME280;32113;42.012;24.870;2023-12-14T00:34:11;98282.63;;;7.83;69.97
46412;BME280;32113;42.012;24.870;2023-12-14T00:36:36;98290.34;;;7.78;69.89
46412;BME280;32113;42.012;24.870;2023-12-14T00:39:02;98291.97;;;7.84;70.42
46412;BME280;32113;42.012;24.870;2023-12-14T00:41:28;98293.75;;;7.77;70.12
46412;BME280;32113;42.012;24.870;2023-12-14T00:43:53;98285.19;;;7.83;70.33
46412;BME280;32113;42.012;24.870;2023-12-14T00:46:19;98285.19;;;7.84;69.94
46412;BME280;32113;42.012;24.870;2023-12-14T00:48:44;98283.41;;;7.89;69.84
46412;BME280;32113;42.012;24.870;2023-12-14T00:51:10;98273.25;;;7.82;69.98
46412;BME280;32113;42.012;24.870;2023-12-14T00:53:35;98269.03;;;7.79;70.10
46412;BME280;32113;42.012;24.870;2023-12-14T00:56:00;98273.25;;;7.82;70.71
46412;BME280;32113;42.012;24.870;2023-12-14T00:58:26;98269.88;;;7.80;70.89
46412;BME280;32113;42.012;24.870;2023-12-14T01:00:51;98272.47;;;7.76;70.68
46412;BME280;32113;42.012;24.870;2023-12-14T01:03:19;98259.69;;;7.76;71.05
46412;BME280;32113;42.012;24.870;2023-12-14T01:05:45;98258.00;;;7.77;71.39
46412;BME280;32113;42.012;24.870;2023-12-14T01:08:10;98254.53;;;7.83;70.44
46412;BME280;32113;42.012;24.870;2023-12-14T01:10:36;98261.25;;;7.88;70.49
46412;BME280;32113;42.012;24.870;2023-12-14T01:13:01;98257.00;;;7.91;70.26
46412;BME280;32113;42.012;24.870;2023-12-14T01:15:27;98247.75;;;7.80;71.03
46412;BME280;32113;42.012;24.870;2023-12-14T01:17:52;98252.91;;;7.77;70.70
46412;BME280;32113;42.012;24.870;2023-12-14T01:20:18;98240.13;;;7.75;70.85
46412;BME280;32113;42.012;24.870;2023-12-14T01:22:44;98230.00;;;7.69;71.22
46412;BME280;32113;42.012;24.870;2023-12-14T01:25:09;98229.22;;;7.62;71.61
46412;BME280;32113;42.012;24.870;2023-12-14T01:27:35;98218.94;;;7.67;72.65
46412;BME280;32113;42.012;24.870;2023-12-14T01:30:00;98220.63;;;7.70;72.30
46412;BME280;32113;42.012;24.870;2023-12-14T01:32:26;98219.81;;;7.68;73.07
46412;BME280;32113;42.012;24.870;2023-12-14T01:34:51;98220.59;;;7.73;73.00
46412;BME280;32113;42.012;24.870;2023-12-14T01:37:17;98234.22;;;7.75;73.15
46412;BME280;32113;42.012;24.870;2023-12-14T01:39:42;98241.78;;;7.83;72.68
46412;BME280;32113;42.012;24.870;2023-12-14T01:42:08;98223.91;;;7.83;72.26
46412;BME280;32113;42.012;24.870;2023-12-14T01:44:34;98220.47;;;7.82;71.77
46412;BME280;32113;42.012;24.870;2023-12-14T01:46:59;98228.22;;;7.78;71.81
46412;BME280;32113;42.012;24.870;2023-12-14T01:49:25;98216.25;;;7.80;71.65
46412;BME280;32113;42.012;24.870;2023-12-14T01:51:50;98218.88;;;7.75;72.37
46412;BME280;32113;42.012;24.870;2023-12-14T01:54:16;98229.84;;;7.82;72.36
46412;BME280;32113;42.012;24.870;2023-12-14T01:56:41;98229.03;;;7.78;72.09
46412;BME280;32113;42.012;24.870;2023-12-14T01:59:07;98231.47;;;7.89;71.48
46412;BME280;32113;42.012;24.870;2023-12-14T02:01:47;98232.34;;;7.86;71.50
46412;BME280;32113;42.012;24.870;2023-12-14T02:04:17;98226.47;;;7.80;71.31
46412;BME280;32113;42.012;24.870;2023-12-14T02:06:42;98223.13;;;7.74;71.50
46412;BME280;32113;42.012;24.870;2023-12-14T02:09:08;98227.38;;;7.74;71.95
46412;BME280;32113;42.012;24.870;2023-12-14T02:11:35;98247.91;;;7.68;72.48
46412;BME280;32113;42.012;24.870;2023-12-14T02:14:05;98246.19;;;7.68;72.56
46412;BME280;32113;42.012;24.870;2023-12-14T02:16:31;98234.16;;;7.76;71.83
46412;BME280;32113;42.012;24.870;2023-12-14T02:18:57;98224.81;;;7.75;71.62
46412;BME280;32113;42.012;24.870;2023-12-14T02:21:23;98232.44;;;7.80;70.91
46412;BME280;32113;42.012;24.870;2023-12-14T02:23:48;98233.38;;;7.71;71.69
46412;BME280;32113;42.012;24.870;2023-12-14T02:26:14;98224.03;;;7.72;70.76
46412;BME280;32113;42.012;24.870;2023-12-14T02:28:40;98231.66;;;7.73;70.46
46412;BME280;32113;42.012;24.870;2023-12-14T02:31:06;98225.69;;;7.73;70.18
46412;BME280;32113;42.012;24.870;2023-12-14T02:33:31;98214.69;;;7.68;70.18
46412;BME280;32113;42.012;24.870;2023-12-14T02:35:57;98224.94;;;7.65;70.23
46412;BME280;32113;42.012;24.870;2023-12-14T02:38:22;98221.56;;;7.64;70.78
46412;BME280;32113;42.012;24.870;2023-12-14T02:40:48;98210.50;;;7.60;71.78
46412;BME280;32113;42.012;24.870;2023-12-14T02:43:15;98217.34;;;7.60;71.16
46412;BME280;32113;42.012;24.870;2023-12-14T02:45:41;98214.72;;;7.65;70.66
46412;BME280;32113;42.012;24.870;2023-12-14T02:48:07;98224.22;;;7.56;70.54
46412;BME280;32113;42.012;24.870;2023-12-14T02:50:32;98219.03;;;7.62;70.61
46412;BME280;32113;42.012;24.870;2023-12-14T02:52:58;98215.56;;;7.67;70.40
46412;BME280;32113;42.012;24.870;2023-12-14T02:55:23;98223.44;;;7.48;70.89
46412;BME280;32113;42.012;24.870;2023-12-14T02:57:49;98214.00;;;7.56;71.14
46412;BME280;32113;42.012;24.870;2023-12-14T03:00:15;98222.44;;;7.61;71.00
46412;BME280;32113;42.012;24.870;2023-12-14T03:02:40;98221.59;;;7.61;71.58
46412;BME280;32113;42.012;24.870;2023-12-14T03:05:06;98230.09;;;7.61;71.22
46412;BME280;32113;42.012;24.870;2023-12-14T03:07:31;98225.03;;;7.57;71.44
46412;BME280;32113;42.012;24.870;2023-12-14T03:09:57;98219.94;;;7.57;71.40
46412;BME280;32113;42.012;24.870;2023-12-14T03:12:22;98225.91;;;7.57;71.30
46412;BME280;32113;42.012;24.870;2023-12-14T03:14:48;98226.69;;;7.61;71.06
46412;BME280;32113;42.012;24.870;2023-12-14T03:17:13;98241.06;;;7.70;70.68
46412;BME280;32113;42.012;24.870;2023-12-14T03:19:40;98229.94;;;7.72;70.31
46412;BME280;32113;42.012;24.870;2023-12-14T03:22:08;98233.38;;;7.71;70.22
46412;BME280;32113;42.012;24.870;2023-12-14T03:24:37;98241.13;;;7.62;70.21
46412;BME280;32113;42.012;24.870;2023-12-14T03:27:03;98236.94;;;7.58;71.33
46412;BME280;32113;42.012;24.870;2023-12-14T03:29:29;98232.75;;;7.52;70.92
46412;BME280;32113;42.012;24.870;2023-12-14T03:31:58;98230.22;;;7.51;71.39
46412;BME280;32113;42.012;24.870;2023-12-14T03:34:24;98219.94;;;7.55;71.15
46412;BME280;32113;42.012;24.870;2023-12-14T03:36:50;98222.47;;;7.58;71.55
46412;BME280;32113;42.012;24.870;2023-12-14T03:39:16;98226.72;;;7.59;71.48
46412;BME280;32113;42.012;24.870;2023-12-14T03:41:42;98217.34;;;7.60;72.16
46412;BME280;32113;42.012;24.870;2023-12-14T03:44:08;98209.59;;;7.66;71.83
46412;BME280;32113;42.012;24.870;2023-12-14T03:46:33;98223.25;;;7.65;72.09
46412;BME280;32113;42.012;24.870;2023-12-14T03:49:00;98224.94;;;7.65;72.23
46412;BME280;32113;42.012;24.870;2023-12-14T03:51:25;98214.72;;;7.65;72.44
46412;BME280;32113;42.012;24.870;2023-12-14T03:53:51;98212.16;;;7.66;72.78
46412;BME280;32113;42.012;24.870;2023-12-14T03:56:17;98205.28;;;7.73;71.89
46412;BME280;32113;42.012;24.870;2023-12-14T03:58:42;98218.91;;;7.72;72.47
46412;BME280;32113;42.012;24.870;2023-12-14T04:01:16;98213.84;;;7.67;72.02
46412;BME280;32113;42.012;24.870;2023-12-14T04:03:41;98213.81;;;7.72;71.79
46412;BME280;32113;42.012;24.870;2023-12-14T04:06:07;98224.00;;;7.75;71.54
46412;BME280;32113;42.012;24.870;2023-12-14T04:08:32;98226.44;;;7.83;71.34
46412;BME280;32113;42.012;24.870;2023-12-14T04:10:58;98205.13;;;7.87;70.93
46412;BME280;32113;42.012;24.870;2023-12-14T04:13:23;98218.69;;;7.91;70.06
46412;BME280;32113;42.012;24.870;2023-12-14T04:15:49;98212.06;;;7.74;70.46
46412;BME280;32113;42.012;24.870;2023-12-14T04:18:15;98211.25;;;7.70;70.62
46412;BME280;32113;42.012;24.870;2023-12-14T04:20:40;98205.38;;;7.65;71.26
46412;BME280;32113;42.012;24.870;2023-12-14T04:23:06;98199.47;;;7.61;71.06
46412;BME280;32113;42.012;24.870;2023-12-14T04:25:31;98196.91;;;7.61;71.61
46412;BME280;32113;42.012;24.870;2023-12-14T04:27:57;98201.91;;;7.69;70.77
46412;BME280;32113;42.012;24.870;2023-12-14T04:30:22;98210.41;;;7.70;70.72
46412;BME280;32113;42.012;24.870;2023-12-14T04:32:48;98207.03;;;7.71;70.43
46412;BME280;32113;42.012;24.870;2023-12-14T04:35:14;98201.19;;;7.58;70.50
46412;BME280;32113;42.012;24.870;2023-12-14T04:37:39;98201.25;;;7.55;71.12
46412;BME280;32113;42.012;24.870;2023-12-14T04:40:05;98212.38;;;7.49;71.52
46412;BME280;32113;42.012;24.870;2023-12-14T04:42:31;98213.25;;;7.45;71.65
46412;BME280;32113;42.012;24.870;2023-12-14T04:44:57;98221.72;;;7.50;71.28
46412;BME280;32113;42.012;24.870;2023-12-14T04:47:22;98226.91;;;7.39;71.18
46412;BME280;32113;42.012;24.870;2023-12-14T04:49:48;98225.19;;;7.43;71.95
46412;BME280;32113;42.012;24.870;2023-12-14T04:52:13;98226.03;;;7.42;71.69
46412;BME280;32113;42.012;24.870;2023-12-14T04:54:39;98226.03;;;7.45;71.69
46412;BME280;32113;42.012;24.870;2023-12-14T04:57:05;98220.91;;;7.45;71.89
46412;BME280;32113;42.012;24.870;2023-12-14T04:59:31;98224.25;;;7.50;71.85
46412;BME280;32113;42.012;24.870;2023-12-14T05:01:56;98219.22;;;7.47;71.28
46412;BME280;32113;42.012;24.870;2023-12-14T05:04:22;98213.25;;;7.43;71.22
46412;BME280;32113;42.012;24.870;2023-12-14T05:06:47;98219.22;;;7.47;71.75
46412;BME280;32113;42.012;24.870;2023-12-14T05:09:13;98214.91;;;7.51;71.54
46412;BME280;32113;42.012;24.870;2023-12-14T05:11:43;98213.22;;;7.49;71.61
46412;BME280;32113;42.012;24.870;2023-12-14T05:14:08;98220.88;;;7.49;71.19
46412;BME280;32113;42.012;24.870;2023-12-14T05:16:34;98228.56;;;7.45;71.15
46412;BME280;32113;42.012;24.870;2023-12-14T05:19:00;98220.09;;;7.43;71.38
46412;BME280;32113;42.012;24.870;2023-12-14T05:21:25;98221.78;;;7.42;70.96
46412;BME280;32113;42.012;24.870;2023-12-14T05:23:51;98215.00;;;7.41;71.24
46412;BME280;32113;42.012;24.870;2023-12-14T05:26:16;98208.16;;;7.43;70.92
46412;BME280;32113;42.012;24.870;2023-12-14T05:28:42;98198.03;;;7.39;71.22
46412;BME280;32113;42.012;24.870;2023-12-14T05:31:07;98207.44;;;7.33;71.64
46412;BME280;32113;42.012;24.870;2023-12-14T05:33:39;98213.34;;;7.37;71.58
46412;BME280;32113;42.012;24.870;2023-12-14T05:36:05;98205.63;;;7.42;71.35
46412;BME280;32113;42.012;24.870;2023-12-14T05:38:35;98215.09;;;7.33;71.18
46412;BME280;32113;42.012;24.870;2023-12-14T05:41:00;98213.44;;;7.29;70.96
46412;BME280;32113;42.012;24.870;2023-12-14T05:43:26;98224.53;;;7.22;70.58
46412;BME280;32113;42.012;24.870;2023-12-14T05:45:51;98225.50;;;7.12;71.82
46412;BME280;32113;42.012;24.870;2023-12-14T05:48:17;98233.13;;;7.15;72.31
46412;BME280;32113;42.012;24.870;2023-12-14T05:50:42;98237.38;;;7.13;72.17
46412;BME280;32113;42.012;24.870;2023-12-14T05:53:08;98237.34;;;7.19;72.25
46412;BME280;32113;42.012;24.870;2023-12-14T05:55:33;98229.69;;;7.19;71.73
46412;BME280;32113;42.012;24.870;2023-12-14T05:57:59;98238.19;;;7.19;71.67
46412;BME280;32113;42.012;24.870;2023-12-14T06:00:24;98235.63;;;7.21;71.84
46412;BME280;32113;42.012;24.870;2023-12-14T06:02:50;98230.63;;;7.10;72.82
46412;BME280;32113;42.012;24.870;2023-12-14T06:05:15;98236.59;;;7.07;72.72
46412;BME280;32113;42.012;24.870;2023-12-14T06:07:41;98234.03;;;7.09;73.38
46412;BME280;32113;42.012;24.870;2023-12-14T06:10:07;98228.03;;;7.16;72.75
46412;BME280;32113;42.012;24.870;2023-12-14T06:12:32;98224.63;;;7.16;72.81
46412;BME280;32113;42.012;24.870;2023-12-14T06:14:58;98223.81;;;7.10;72.33
46412;BME280;32113;42.012;24.870;2023-12-14T06:17:24;98217.88;;;7.08;73.72
46412;BME280;32113;42.012;24.870;2023-12-14T06:19:49;98222.97;;;7.10;73.62
46412;BME280;32113;42.012;24.870;2023-12-14T06:22:15;98232.28;;;7.14;73.45
46412;BME280;32113;42.012;24.870;2023-12-14T06:24:40;98238.19;;;7.18;73.93
46412;BME280;32113;42.012;24.870;2023-12-14T06:27:06;98244.09;;;7.23;74.12
46412;BME280;32113;42.012;24.870;2023-12-14T06:29:31;98236.41;;;7.26;74.81
46412;BME280;32113;42.012;24.870;2023-12-14T06:31:57;98243.94;;;7.40;73.79
46412;BME280;32113;42.012;24.870;2023-12-14T06:34:22;98234.53;;;7.47;73.23
46412;BME280;32113;42.012;24.870;2023-12-14T06:36:48;98241.31;;;7.46;73.16
46412;BME280;32113;42.012;24.870;2023-12-14T06:39:13;98232.84;;;7.44;73.38
46412;BME280;32113;42.012;24.870;2023-12-14T06:41:39;98243.13;;;7.36;73.33
46412;BME280;32113;42.012;24.870;2023-12-14T06:44:05;98250.75;;;7.38;73.54
46412;BME280;32113;42.012;24.870;2023-12-14T06:46:30;98244.72;;;7.47;73.12
46412;BME280;32113;42.012;24.870;2023-12-14T06:48:56;98249.84;;;7.47;73.30
46412;BME280;32113;42.012;24.870;2023-12-14T06:51:22;98262.63;;;7.42;73.99
46412;BME280;32113;42.012;24.870;2023-12-14T06:53:48;98244.81;;;7.38;74.36
46412;BME280;32113;42.012;24.870;2023-12-14T06:56:14;98252.41;;;7.45;74.94
46412;BME280;32113;42.012;24.870;2023-12-14T06:58:41;98250.63;;;7.51;74.96
46412;BME280;32113;42.012;24.870;2023-12-14T07:01:07;98251.31;;;7.67;74.50
46412;BME280;32113;42.012;24.870;2023-12-14T07:03:33;98255.44;;;7.77;74.38
46412;BME280;32113;42.012;24.870;2023-12-14T07:05:59;98257.09;;;7.84;73.73
46412;BME280;32113;42.012;24.870;2023-12-14T07:08:25;98252.69;;;7.93;73.08
46412;BME280;32113;42.012;24.870;2023-12-14T07:10:50;98253.53;;;7.96;73.57
46412;BME280;32113;42.012;24.870;2023-12-14T07:13:16;98249.97;;;8.08;73.05
46412;BME280;32113;42.012;24.870;2023-12-14T07:15:42;98256.69;;;8.12;73.00
46412;BME280;32113;42.012;24.870;2023-12-14T07:18:07;98243.75;;;8.26;72.54
46412;BME280;32113;42.012;24.870;2023-12-14T07:20:33;98230.19;;;8.21;72.34
46412;BME280;32113;42.012;24.870;2023-12-14T07:22:58;98221.66;;;8.24;72.76
46412;BME280;32113;42.012;24.870;2023-12-14T07:25:24;98218.19;;;8.28;73.09
46412;BME280;32113;42.012;24.870;2023-12-14T07:27:49;98223.22;;;8.33;73.29
46412;BME280;32113;42.012;24.870;2023-12-14T07:30:16;98224.72;;;8.48;73.21
46412;BME280;32113;42.012;24.870;2023-12-14T07:32:42;98237.31;;;8.62;72.76
46412;BME280;32113;42.012;24.870;2023-12-14T07:35:08;98245.78;;;8.67;72.57
46412;BME280;32113;42.012;24.870;2023-12-14T07:37:33;98234.66;;;8.70;72.88
46412;BME280;32113;42.012;24.870;2023-12-14T07:39:59;98241.22;;;8.83;72.33
46412;BME280;32113;42.012;24.870;2023-12-14T07:42:25;98253.94;;;8.89;72.38
46412;BME280;32113;42.012;24.870;2023-12-14T07:44:51;98249.59;;;8.94;71.55
46412;BME280;32113;42.012;24.870;2023-12-14T07:47:16;98253.69;;;9.03;71.56
46412;BME280;32113;42.012;24.870;2023-12-14T07:49:42;98253.63;;;9.10;71.53
46412;BME280;32113;42.012;24.870;2023-12-14T07:52:07;98268.84;;;9.17;71.28
46412;BME280;32113;42.012;24.870;2023-12-14T07:54:33;98259.41;;;9.19;70.54
46412;BME280;32113;42.012;24.870;2023-12-14T07:56:58;98267.09;;;9.18;70.15
46412;BME280;32113;42.012;24.870;2023-12-14T07:59:24;98273.03;;;9.22;69.22
46412;BME280;32113;42.012;24.870;2023-12-14T08:01:49;98273.19;;;9.12;69.40
46412;BME280;32113;42.012;24.870;2023-12-14T08:04:15;98279.22;;;9.08;68.37
46412;BME280;32113;42.012;24.870;2023-12-14T08:06:40;98267.34;;;9.04;68.07
46412;BME280;32113;42.012;24.870;2023-12-14T08:09:06;98279.41;;;8.97;68.18
46412;BME280;32113;42.012;24.870;2023-12-14T08:11:33;98277.72;;;8.96;68.05
46412;BME280;32113;42.012;24.870;2023-12-14T08:13:58;98287.97;;;8.94;68.56
46412;BME280;32113;42.012;24.870;2023-12-14T08:16:24;98280.28;;;8.94;68.56
46412;BME280;32113;42.012;24.870;2023-12-14T08:18:49;98256.38;;;8.96;68.82
46412;BME280;32113;42.012;24.870;2023-12-14T08:21:16;98261.38;;;9.02;68.66
46412;BME280;32113;42.012;24.870;2023-12-14T08:23:42;98259.56;;;9.10;67.78
46412;BME280;32113;42.012;24.870;2023-12-14T08:26:07;98266.31;;;9.14;67.29
46412;BME280;32113;42.012;24.870;2023-12-14T08:28:35;98259.69;;;9.02;66.68
46412;BME280;32113;42.012;24.870;2023-12-14T08:31:01;98262.19;;;9.07;66.93
46412;BME280;32113;42.012;24.870;2023-12-14T08:33:28;98268.16;;;9.06;66.54
46412;BME280;32113;42.012;24.870;2023-12-14T08:35:55;98266.44;;;9.08;66.76
46412;BME280;32113;42.012;24.870;2023-12-14T08:38:20;98262.84;;;9.18;66.32
46412;BME280;32113;42.012;24.870;2023-12-14T08:40:46;98264.50;;;9.19;65.50
46412;BME280;32113;42.012;24.870;2023-12-14T08:43:11;98251.69;;;9.21;66.06
46412;BME280;32113;42.012;24.870;2023-12-14T08:45:37;98261.88;;;9.26;65.98
46412;BME280;32113;42.012;24.870;2023-12-14T08:48:03;98269.31;;;9.38;65.43
46412;BME280;32113;42.012;24.870;2023-12-14T08:50:29;98276.84;;;9.46;65.19
46412;BME280;32113;42.012;24.870;2023-12-14T08:52:54;98276.81;;;9.48;64.98
46412;BME280;32113;42.012;24.870;2023-12-14T08:55:20;98277.69;;;9.48;65.84
46412;BME280;32113;42.012;24.870;2023-12-14T08:57:45;98280.91;;;9.58;65.84
46412;BME280;32113;42.012;24.870;2023-12-14T09:00:11;98289.34;;;9.63;65.45
46412;BME280;32113;42.012;24.870;2023-12-14T09:02:37;98289.13;;;9.74;65.18
46412;BME280;32113;42.012;24.870;2023-12-14T09:05:03;98289.81;;;9.84;65.63
46412;BME280;32113;42.012;24.870;2023-12-14T09:07:30;98283.69;;;9.91;64.63
46412;BME280;32113;42.012;24.870;2023-12-14T09:09:55;98270.66;;;10.02;64.13
46412;BME280;32113;42.012;24.870;2023-12-14T09:12:21;98276.47;;;10.10;63.36
46412;BME280;32113;42.012;24.870;2023-12-14T09:14:47;98250.66;;;10.20;63.73
46412;BME280;32113;42.012;24.870;2023-12-14T09:17:12;98254.78;;;10.27;63.55
46412;BME280;32113;42.012;24.870;2023-12-14T09:19:38;98260.38;;;10.43;63.29
46412;BME280;32113;42.012;24.870;2023-12-14T09:22:04;98253.41;;;10.51;62.96
46412;BME280;32113;42.012;24.870;2023-12-14T09:24:29;98252.44;;;10.56;62.90
46412;BME280;32113;42.012;24.870;2023-12-14T09:26:55;98245.41;;;10.66;62.36
46412;BME280;32113;42.012;24.870;2023-12-14T09:29:21;98243.38;;;10.78;62.28
46412;BME280;32113;42.012;24.870;2023-12-14T09:31:46;98235.44;;;10.88;61.63
46412;BME280;32113;42.012;24.870;2023-12-14T09:34:12;98226.84;;;10.89;61.49
46412;BME280;32113;42.012;24.870;2023-12-14T09:36:39;98225.94;;;10.91;61.17
46412;BME280;32113;42.012;24.870;2023-12-14T09:39:04;98209.63;;;10.94;60.51
46412;BME280;32113;42.012;24.870;2023-12-14T09:41:31;98212.34;;;10.88;60.63
46412;BME280;32113;42.012;24.870;2023-12-14T09:43:56;98218.59;;;10.77;61.16
46412;BME280;32113;42.012;24.870;2023-12-14T09:46:24;98226.25;;;10.79;61.03
46412;BME280;32113;42.012;24.870;2023-12-14T09:48:51;98222.88;;;10.77;61.84
46412;BME280;32113;42.012;24.870;2023-12-14T09:51:16;98211.72;;;10.78;61.40
46412;BME280;32113;42.012;24.870;2023-12-14T09:53:42;98215.81;;;10.87;60.98
46412;BME280;32113;42.012;24.870;2023-12-14T09:56:08;98213.00;;;10.96;61.32
46412;BME280;32113;42.012;24.870;2023-12-14T09:58:34;98200.78;;;11.04;61.03
46412;BME280;32113;42.012;24.870;2023-12-14T10:01:00;98203.28;;;11.08;60.49
46412;BME280;32113;42.012;24.870;2023-12-14T10:03:30;98192.81;;;11.15;60.99
46412;BME280;32113;42.012;24.870;2023-12-14T10:05:59;98190.03;;;11.23;60.72
46412;BME280;32113;42.012;24.870;2023-12-14T10:08:27;98192.34;;;11.33;59.66
46412;BME280;32113;42.012;24.870;2023-12-14T10:10:54;98191.19;;;11.44;59.51
46412;BME280;32113;42.012;24.870;2023-12-14T10:13:23;98198.22;;;11.69;59.13
46412;BME280;32113;42.012;24.870;2023-12-14T10:16:00;98190.63;;;11.95;58.80
46412;BME280;32113;42.012;24.870;2023-12-14T10:18:26;98193.38;;;12.19;57.66
46412;BME280;32113;42.012;24.870;2023-12-14T10:20:52;98184.03;;;12.16;56.80
46412;BME280;32113;42.012;24.870;2023-12-14T10:23:18;98176.56;;;12.08;56.73
46412;BME280;32113;42.012;24.870;2023-12-14T10:25:44;98181.31;;;12.21;56.69
46412;BME280;32113;42.012;24.870;2023-12-14T10:28:14;98159.53;;;12.31;56.59
46412;BME280;32113;42.012;24.870;2023-12-14T10:30:43;98161.22;;;12.59;55.67
46412;BME280;32113;42.012;24.870;2023-12-14T10:33:08;98144.22;;;12.81;55.68
46412;BME280;32113;42.012;24.870;2023-12-14T10:35:35;98140.16;;;13.00;54.76
46412;BME280;32113;42.012;24.870;2023-12-14T10:38:04;98139.66;;;13.14;54.01
46412;BME280;32113;42.012;24.870;2023-12-14T10:40:34;98140.72;;;13.33;53.46
46412;BME280;32113;42.012;24.870;2023-12-14T10:43:00;98141.91;;;13.48;52.51
46412;BME280;32113;42.012;24.870;2023-12-14T10:45:32;98141.63;;;13.56;52.95
46412;BME280;32113;42.012;24.870;2023-12-14T10:47:59;98135.31;;;13.64;52.42
46412;BME280;32113;42.012;24.870;2023-12-14T10:50:28;98142.88;;;13.69;52.00
46412;BME280;32113;42.012;24.870;2023-12-14T10:52:54;98135.94;;;13.71;51.75
46412;BME280;32113;42.012;24.870;2023-12-14T10:55:33;98133.16;;;13.76;51.54
46412;BME280;32113;42.012;24.870;2023-12-14T10:58:03;98131.03;;;13.63;51.71
46412;BME280;32113;42.012;24.870;2023-12-14T11:00:30;98133.69;;;13.62;52.40
46412;BME280;32113;42.012;24.870;2023-12-14T11:02:59;98124.34;;;13.59;52.17
46412;BME280;32113;42.012;24.870;2023-12-14T11:05:27;98120.25;;;13.53;52.79
46412;BME280;32113;42.012;24.870;2023-12-14T11:07:55;98119.25;;;13.58;53.14
46412;BME280;32113;42.012;24.870;2023-12-14T11:10:25;98122.78;;;13.55;52.74
46412;BME280;32113;42.012;24.870;2023-12-14T11:12:55;98135.06;;;13.47;53.43
46412;BME280;32113;42.012;24.870;2023-12-14T11:15:22;98143.19;;;13.36;53.32
46412;BME280;32113;42.012;24.870;2023-12-14T11:23:10;98128.78;;;13.06;53.89
46412;BME280;32113;42.012;24.870;2023-12-14T11:25:36;98141.97;;;12.97;54.25
46412;BME280;32113;42.012;24.870;2023-12-14T11:28:06;98134.69;;;12.84;54.90
46412;BME280;32113;42.012;24.870;2023-12-14T11:30:33;98134.72;;;12.83;55.04
46412;BME280;32113;42.012;24.870;2023-12-14T11:32:59;98119.38;;;12.80;55.53
46412;BME280;32113;42.012;24.870;2023-12-14T11:35:24;98133.28;;;12.74;55.72
46412;BME280;32113;42.012;24.870;2023-12-14T11:37:50;98124.16;;;12.65;56.66
46412;BME280;32113;42.012;24.870;2023-12-14T11:40:15;98126.91;;;12.60;56.91
46412;BME280;32113;42.012;24.870;2023-12-14T11:43:03;98119.97;;;12.63;56.53
46412;BME280;32113;42.012;24.870;2023-12-14T11:45:40;98130.25;;;12.63;57.01
46412;BME280;32113;42.012;24.870;2023-12-14T11:48:07;98113.00;;;12.65;56.89
46412;BME280;32113;42.012;24.870;2023-12-14T11:50:36;98111.38;;;12.62;56.98
46412;BME280;32113;42.012;24.870;2023-12-14T11:53:02;98106.19;;;12.64;57.16
46412;BME280;32113;42.012;24.870;2023-12-14T11:55:33;98119.97;;;12.63;57.54
46412;BME280;32113;42.012;24.870;2023-12-14T11:57:59;98114.75;;;12.64;57.59
46412;BME280;32113;42.012;24.870;2023-12-14T12:00:29;98114.13;;;12.57;57.80
46412;BME280;32113;42.012;24.870;2023-12-14T12:03:12;98117.66;;;12.55;58.30
46412;BME280;32113;42.012;24.870;2023-12-14T12:05:43;98128.06;;;12.50;59.20
46412;BME280;32113;42.012;24.870;2023-12-14T12:08:13;98122.88;;;12.52;58.60
46412;BME280;32113;42.012;24.870;2023-12-14T12:10:39;98119.41;;;12.53;58.77
46412;BME280;32113;42.012;24.870;2023-12-14T12:13:15;98125.38;;;12.55;58.37
46412;BME280;32113;42.012;24.870;2023-12-14T12:15:41;98122.84;;;12.53;58.26
46412;BME280;32113;42.012;24.870;2023-12-14T12:18:08;98121.22;;;12.51;58.79
46412;BME280;32113;42.012;24.870;2023-12-14T12:20:34;98109.97;;;12.53;58.03
46412;BME280;32113;42.012;24.870;2023-12-14T12:23:00;98124.63;;;12.51;58.13
46412;BME280;32113;42.012;24.870;2023-12-14T12:25:26;98132.16;;;12.57;58.16
46412;BME280;32113;42.012;24.870;2023-12-14T12:27:54;98126.81;;;12.62;57.91
46412;BME280;32113;42.012;24.870;2023-12-14T12:30:20;98126.78;;;12.64;57.80
46412;BME280;32113;42.012;24.870;2023-12-14T12:32:46;98124.03;;;12.70;57.75
46412;BME280;32113;42.012;24.870;2023-12-14T12:35:12;98119.56;;;12.75;57.41
46412;BME280;32113;42.012;24.870;2023-12-14T12:37:38;98123.81;;;12.76;57.43
46412;BME280;32113;42.012;24.870;2023-12-14T12:40:05;98118.69;;;12.74;57.44
46412;BME280;32113;42.012;24.870;2023-12-14T12:42:31;98125.06;;;12.64;57.73
46412;BME280;32113;42.012;24.870;2023-12-14T12:44:56;98121.50;;;12.68;57.29
46412;BME280;32113;42.012;24.870;2023-12-14T12:47:23;98124.97;;;12.67;57.71
46412;BME280;32113;42.012;24.870;2023-12-14T12:49:48;98121.53;;;12.67;58.21
46412;BME280;32113;42.012;24.870;2023-12-14T12:52:14;98133.56;;;12.66;57.84
46412;BME280;32113;42.012;24.870;2023-12-14T12:54:40;98128.38;;;12.68;57.76
46412;BME280;32113;42.012;24.870;2023-12-14T12:57:06;98137.44;;;12.53;58.25